sensor_id;sensor_type;location;lat;lon;timestamp;P1;durP1;ratioP1;P2;durP2;ratioP2
61806;SDS011;47726;52.766;6.606;2022-08-21T00:01:41;10.95;;;4.95;;
61806;SDS011;47726;52.766;6.606;2022-08-21T00:04:07;7.40;;;4.35;;
61806;SDS011;47726;52.766;6.606;2022-08-21T00:06:34;11.13;;;4.45;;
61806;SDS011;47726;52.766;6.606;2022-08-21T00:09:02;8.90;;;4.18;;
61806;SDS011;47726;52.766;6.606;2022-08-21T00:11:29;8.32;;;4.45;;
61806;SDS011;47726;52.766;6.606;2022-08-21T00:13:55;7.70;;;4.63;;
61806;SDS011;47726;52.766;6.606;2022-08-21T00:16:21;7.88;;;4.53;;
61806;SDS011;47726;52.766;6.606;2022-08-21T00:18:47;7.93;;;5.07;;
61806;SDS011;47726;52.766;6.606;2022-08-21T00:21:14;10.52;;;4.60;;
61806;SDS011;47726;52.766;6.606;2022-08-21T00:23:40;9.30;;;4.80;;
61806;SDS011;47726;52.766;6.606;2022-08-21T00:26:06;9.10;;;4.85;;
61806;SDS011;47726;52.766;6.606;2022-08-21T00:28:32;9.18;;;4.85;;
61806;SDS011;47726;52.766;6.606;2022-08-21T00:30:58;9.05;;;4.70;;
61806;SDS011;47726;52.766;6.606;2022-08-21T00:33:25;7.53;;;5.22;;
61806;SDS011;47726;52.766;6.606;2022-08-21T00:35:51;7.88;;;4.90;;
61806;SDS011;47726;52.766;6.606;2022-08-21T00:38:17;8.43;;;4.70;;
61806;SDS011;47726;52.766;6.606;2022-08-21T00:40:51;9.23;;;4.85;;
61806;SDS011;47726;52.766;6.606;2022-08-21T00:43:20;7.65;;;5.05;;
61806;SDS011;47726;52.766;6.606;2022-08-21T00:48:18;10.23;;;5.03;;
61806;SDS011;47726;52.766;6.606;2022-08-21T00:50:55;8.23;;;5.22;;
61806;SDS011;47726;52.766;6.606;2022-08-21T00:53:26;10.18;;;5.45;;
61806;SDS011;47726;52.766;6.606;2022-08-21T00:55:53;9.32;;;4.78;;
61806;SDS011;47726;52.766;6.606;2022-08-21T00:58:20;9.23;;;5.50;;
61806;SDS011;47726;52.766;6.606;2022-08-21T01:00:46;7.80;;;4.72;;
61806;SDS011;47726;52.766;6.606;2022-08-21T01:03:15;9.68;;;4.95;;
61806;SDS011;47726;52.766;6.606;2022-08-21T01:05:42;9.77;;;5.07;;
61806;SDS011;47726;52.766;6.606;2022-08-21T01:08:09;9.88;;;5.00;;
61806;SDS011;47726;52.766;6.606;2022-08-21T01:10:37;9.15;;;5.35;;
61806;SDS011;47726;52.766;6.606;2022-08-21T01:13:03;8.27;;;4.55;;
61806;SDS011;47726;52.766;6.606;2022-08-21T01:15:32;9.68;;;4.88;;
61806;SDS011;47726;52.766;6.606;2022-08-21T01:18:02;8.77;;;4.90;;
61806;SDS011;47726;52.766;6.606;2022-08-21T01:20:29;8.35;;;4.60;;
61806;SDS011;47726;52.766;6.606;2022-08-21T01:22:55;7.63;;;4.65;;
61806;SDS011;47726;52.766;6.606;2022-08-21T01:25:21;7.25;;;4.65;;
61806;SDS011;47726;52.766;6.606;2022-08-21T01:27:46;9.18;;;5.00;;
61806;SDS011;47726;52.766;6.606;2022-08-21T01:30:14;7.80;;;4.88;;
61806;SDS011;47726;52.766;6.606;2022-08-21T01:32:42;8.82;;;5.40;;
61806;SDS011;47726;52.766;6.606;2022-08-21T01:35:09;9.95;;;5.30;;
61806;SDS011;47726;52.766;6.606;2022-08-21T01:37:36;9.50;;;5.20;;
61806;SDS011;47726;52.766;6.606;2022-08-21T01:40:03;8.15;;;5.47;;
61806;SDS011;47726;52.766;6.606;2022-08-21T01:42:31;10.48;;;5.57;;
61806;SDS011;47726;52.766;6.606;2022-08-21T01:44:56;9.18;;;5.38;;
61806;SDS011;47726;52.766;6.606;2022-08-21T01:47:22;9.20;;;5.90;;
61806;SDS011;47726;52.766;6.606;2022-08-21T01:49:48;11.43;;;5.45;;
61806;SDS011;47726;52.766;6.606;2022-08-21T01:52:14;8.70;;;5.35;;
61806;SDS011;47726;52.766;6.606;2022-08-21T01:54:40;8.93;;;5.40;;
61806;SDS011;47726;52.766;6.606;2022-08-21T01:57:06;7.25;;;4.88;;
61806;SDS011;47726;52.766;6.606;2022-08-21T01:59:33;7.70;;;5.13;;
61806;SDS011;47726;52.766;6.606;2022-08-21T02:01:59;8.50;;;5.18;;
61806;SDS011;47726;52.766;6.606;2022-08-21T02:04:25;7.97;;;5.20;;
61806;SDS011;47726;52.766;6.606;2022-08-21T02:06:50;11.30;;;5.40;;
61806;SDS011;47726;52.766;6.606;2022-08-21T02:09:17;9.13;;;5.50;;
61806;SDS011;47726;52.766;6.606;2022-08-21T02:11:42;9.30;;;5.50;;
61806;SDS011;47726;52.766;6.606;2022-08-21T02:14:12;9.20;;;5.63;;
61806;SDS011;47726;52.766;6.606;2022-08-21T02:16:39;6.13;;;5.15;;
61806;SDS011;47726;52.766;6.606;2022-08-21T02:19:06;9.48;;;5.38;;
61806;SDS011;47726;52.766;6.606;2022-08-21T02:21:32;8.25;;;5.60;;
61806;SDS011;47726;52.766;6.606;2022-08-21T02:23:57;8.98;;;5.50;;
61806;SDS011;47726;52.766;6.606;2022-08-21T02:26:24;7.65;;;5.22;;
61806;SDS011;47726;52.766;6.606;2022-08-21T02:28:49;8.38;;;5.25;;
61806;SDS011;47726;52.766;6.606;2022-08-21T02:31:15;8.45;;;5.15;;
61806;SDS011;47726;52.766;6.606;2022-08-21T02:33:41;6.80;;;4.88;;
61806;SDS011;47726;52.766;6.606;2022-08-21T02:36:07;7.97;;;5.32;;
61806;SDS011;47726;52.766;6.606;2022-08-21T02:38:34;9.60;;;5.95;;
61806;SDS011;47726;52.766;6.606;2022-08-21T02:41:04;8.45;;;5.05;;
61806;SDS011;47726;52.766;6.606;2022-08-21T02:43:32;7.93;;;5.18;;
61806;SDS011;47726;52.766;6.606;2022-08-21T02:45:58;10.23;;;5.35;;
61806;SDS011;47726;52.766;6.606;2022-08-21T02:48:26;7.72;;;5.35;;
61806;SDS011;47726;52.766;6.606;2022-08-21T02:50:55;8.02;;;5.55;;
61806;SDS011;47726;52.766;6.606;2022-08-21T02:53:23;9.38;;;5.35;;
61806;SDS011;47726;52.766;6.606;2022-08-21T02:55:50;7.63;;;5.40;;
61806;SDS011;47726;52.766;6.606;2022-08-21T02:58:17;9.80;;;5.65;;
61806;SDS011;47726;52.766;6.606;2022-08-21T03:00:45;9.32;;;6.15;;
61806;SDS011;47726;52.766;6.606;2022-08-21T03:03:11;11.05;;;6.30;;
61806;SDS011;47726;52.766;6.606;2022-08-21T03:05:38;9.02;;;6.13;;
61806;SDS011;47726;52.766;6.606;2022-08-21T03:08:04;10.18;;;6.40;;
61806;SDS011;47726;52.766;6.606;2022-08-21T03:10:35;10.32;;;6.30;;
61806;SDS011;47726;52.766;6.606;2022-08-21T03:13:05;10.98;;;6.45;;
61806;SDS011;47726;52.766;6.606;2022-08-21T03:15:31;10.25;;;6.65;;
61806;SDS011;47726;52.766;6.606;2022-08-21T03:17:57;8.77;;;6.20;;
61806;SDS011;47726;52.766;6.606;2022-08-21T03:20:24;9.82;;;6.22;;
61806;SDS011;47726;52.766;6.606;2022-08-21T03:22:52;9.15;;;6.70;;
61806;SDS011;47726;52.766;6.606;2022-08-21T03:25:19;10.35;;;6.93;;
61806;SDS011;47726;52.766;6.606;2022-08-21T03:27:46;10.75;;;7.97;;
61806;SDS011;47726;52.766;6.606;2022-08-21T03:30:14;10.25;;;7.32;;
61806;SDS011;47726;52.766;6.606;2022-08-21T03:32:41;10.05;;;7.13;;
61806;SDS011;47726;52.766;6.606;2022-08-21T03:35:07;11.10;;;7.38;;
61806;SDS011;47726;52.766;6.606;2022-08-21T03:37:33;9.85;;;6.90;;
61806;SDS011;47726;52.766;6.606;2022-08-21T03:39:59;10.57;;;7.10;;
61806;SDS011;47726;52.766;6.606;2022-08-21T03:42:25;11.85;;;6.90;;
61806;SDS011;47726;52.766;6.606;2022-08-21T03:44:50;12.38;;;7.32;;
61806;SDS011;47726;52.766;6.606;2022-08-21T03:47:16;14.55;;;7.82;;
61806;SDS011;47726;52.766;6.606;2022-08-21T03:49:42;12.80;;;8.07;;
61806;SDS011;47726;52.766;6.606;2022-08-21T03:52:07;11.52;;;7.05;;
61806;SDS011;47726;52.766;6.606;2022-08-21T03:54:33;11.60;;;6.85;;
61806;SDS011;47726;52.766;6.606;2022-08-21T03:56:59;9.88;;;7.18;;
61806;SDS011;47726;52.766;6.606;2022-08-21T03:59:25;10.90;;;7.25;;
61806;SDS011;47726;52.766;6.606;2022-08-21T04:01:52;10.82;;;7.80;;
61806;SDS011;47726;52.766;6.606;2022-08-21T04:04:25;10.65;;;7.45;;
61806;SDS011;47726;52.766;6.606;2022-08-21T04:06:52;10.13;;;7.00;;
61806;SDS011;47726;52.766;6.606;2022-08-21T04:09:18;11.27;;;7.25;;
61806;SDS011;47726;52.766;6.606;2022-08-21T04:11:44;12.23;;;7.40;;
61806;SDS011;47726;52.766;6.606;2022-08-21T04:14:10;12.65;;;7.97;;
61806;SDS011;47726;52.766;6.606;2022-08-21T04:16:36;11.93;;;8.10;;
61806;SDS011;47726;52.766;6.606;2022-08-21T04:19:02;11.05;;;7.45;;
61806;SDS011;47726;52.766;6.606;2022-08-21T04:21:28;14.13;;;7.90;;
61806;SDS011;47726;52.766;6.606;2022-08-21T04:23:54;10.70;;;7.82;;
61806;SDS011;47726;52.766;6.606;2022-08-21T04:26:20;12.75;;;7.40;;
61806;SDS011;47726;52.766;6.606;2022-08-21T04:28:46;13.18;;;7.50;;
61806;SDS011;47726;52.766;6.606;2022-08-21T04:31:12;12.48;;;8.20;;
61806;SDS011;47726;52.766;6.606;2022-08-21T04:33:37;13.23;;;8.35;;
61806;SDS011;47726;52.766;6.606;2022-08-21T04:36:03;11.93;;;7.82;;
61806;SDS011;47726;52.766;6.606;2022-08-21T04:38:30;12.38;;;8.10;;
61806;SDS011;47726;52.766;6.606;2022-08-21T04:40:58;12.32;;;7.55;;
61806;SDS011;47726;52.766;6.606;2022-08-21T04:43:24;12.40;;;7.50;;
61806;SDS011;47726;52.766;6.606;2022-08-21T04:45:50;14.43;;;7.40;;
61806;SDS011;47726;52.766;6.606;2022-08-21T04:48:17;12.63;;;7.35;;
61806;SDS011;47726;52.766;6.606;2022-08-21T04:53:27;13.68;;;7.38;;
61806;SDS011;47726;52.766;6.606;2022-08-21T04:56:01;9.25;;;7.10;;
61806;SDS011;47726;52.766;6.606;2022-08-21T04:58:38;12.27;;;7.90;;
61806;SDS011;47726;52.766;6.606;2022-08-21T05:01:06;14.20;;;7.80;;
61806;SDS011;47726;52.766;6.606;2022-08-21T05:03:34;11.77;;;7.47;;
61806;SDS011;47726;52.766;6.606;2022-08-21T05:06:01;12.40;;;7.78;;
61806;SDS011;47726;52.766;6.606;2022-08-21T05:08:31;11.30;;;7.63;;
61806;SDS011;47726;52.766;6.606;2022-08-21T05:10:58;13.38;;;7.85;;
61806;SDS011;47726;52.766;6.606;2022-08-21T05:13:24;12.90;;;7.38;;
61806;SDS011;47726;52.766;6.606;2022-08-21T05:15:50;12.48;;;7.38;;
61806;SDS011;47726;52.766;6.606;2022-08-21T05:18:15;10.50;;;6.50;;
61806;SDS011;47726;52.766;6.606;2022-08-21T05:20:41;10.80;;;7.05;;
61806;SDS011;47726;52.766;6.606;2022-08-21T05:23:11;10.90;;;7.18;;
61806;SDS011;47726;52.766;6.606;2022-08-21T05:25:37;13.32;;;7.00;;
61806;SDS011;47726;52.766;6.606;2022-08-21T05:28:03;10.98;;;7.15;;
61806;SDS011;47726;52.766;6.606;2022-08-21T05:30:29;11.07;;;6.93;;
61806;SDS011;47726;52.766;6.606;2022-08-21T05:32:56;10.90;;;6.95;;
61806;SDS011;47726;52.766;6.606;2022-08-21T05:35:23;13.75;;;7.50;;
61806;SDS011;47726;52.766;6.606;2022-08-21T05:37:49;11.57;;;7.60;;
61806;SDS011;47726;52.766;6.606;2022-08-21T05:40:15;12.55;;;8.05;;
61806;SDS011;47726;52.766;6.606;2022-08-21T05:42:41;15.20;;;7.60;;
61806;SDS011;47726;52.766;6.606;2022-08-21T05:45:06;11.73;;;7.10;;
61806;SDS011;47726;52.766;6.606;2022-08-21T05:47:32;12.88;;;7.75;;
61806;SDS011;47726;52.766;6.606;2022-08-21T05:49:58;9.57;;;6.80;;
61806;SDS011;47726;52.766;6.606;2022-08-21T05:52:23;10.85;;;7.18;;
61806;SDS011;47726;52.766;6.606;2022-08-21T05:54:49;14.10;;;7.85;;
61806;SDS011;47726;52.766;6.606;2022-08-21T05:57:15;13.00;;;7.15;;
61806;SDS011;47726;52.766;6.606;2022-08-21T05:59:40;10.73;;;7.40;;
61806;SDS011;47726;52.766;6.606;2022-08-21T06:02:06;16.20;;;8.02;;
61806;SDS011;47726;52.766;6.606;2022-08-21T06:04:36;13.18;;;7.63;;
61806;SDS011;47726;52.766;6.606;2022-08-21T06:07:03;13.68;;;7.45;;
61806;SDS011;47726;52.766;6.606;2022-08-21T06:09:29;12.48;;;6.63;;
61806;SDS011;47726;52.766;6.606;2022-08-21T06:11:55;14.02;;;7.15;;
61806;SDS011;47726;52.766;6.606;2022-08-21T06:14:20;12.05;;;7.45;;
61806;SDS011;47726;52.766;6.606;2022-08-21T06:16:46;14.38;;;7.40;;
61806;SDS011;47726;52.766;6.606;2022-08-21T06:19:12;13.07;;;7.43;;
61806;SDS011;47726;52.766;6.606;2022-08-21T06:21:37;11.93;;;6.82;;
61806;SDS011;47726;52.766;6.606;2022-08-21T06:24:03;10.60;;;6.60;;
61806;SDS011;47726;52.766;6.606;2022-08-21T06:26:29;11.00;;;6.15;;
61806;SDS011;47726;52.766;6.606;2022-08-21T06:28:56;12.70;;;6.75;;
61806;SDS011;47726;52.766;6.606;2022-08-21T06:31:22;14.30;;;6.63;;
61806;SDS011;47726;52.766;6.606;2022-08-21T06:33:49;11.52;;;6.60;;
61806;SDS011;47726;52.766;6.606;2022-08-21T06:36:15;12.35;;;7.22;;
61806;SDS011;47726;52.766;6.606;2022-08-21T06:38:43;13.30;;;7.00;;
61806;SDS011;47726;52.766;6.606;2022-08-21T06:41:10;13.18;;;6.20;;
61806;SDS011;47726;52.766;6.606;2022-08-21T06:43:35;10.15;;;6.25;;
61806;SDS011;47726;52.766;6.606;2022-08-21T06:46:01;11.63;;;5.90;;
61806;SDS011;47726;52.766;6.606;2022-08-21T06:48:27;12.77;;;5.90;;
61806;SDS011;47726;52.766;6.606;2022-08-21T06:50:54;13.45;;;6.20;;
61806;SDS011;47726;52.766;6.606;2022-08-21T06:53:20;11.27;;;5.70;;
61806;SDS011;47726;52.766;6.606;2022-08-21T06:55:47;10.88;;;5.90;;
61806;SDS011;47726;52.766;6.606;2022-08-21T06:58:13;14.57;;;5.65;;
61806;SDS011;47726;52.766;6.606;2022-08-21T07:00:40;11.82;;;5.72;;
61806;SDS011;47726;52.766;6.606;2022-08-21T07:03:15;12.15;;;5.88;;
61806;SDS011;47726;52.766;6.606;2022-08-21T07:05:45;12.23;;;5.47;;
61806;SDS011;47726;52.766;6.606;2022-08-21T07:08:11;11.25;;;5.43;;
61806;SDS011;47726;52.766;6.606;2022-08-21T07:10:37;14.73;;;5.93;;
61806;SDS011;47726;52.766;6.606;2022-08-21T07:13:02;10.98;;;5.07;;
61806;SDS011;47726;52.766;6.606;2022-08-21T07:15:28;10.48;;;5.03;;
61806;SDS011;47726;52.766;6.606;2022-08-21T07:17:54;12.20;;;5.63;;
61806;SDS011;47726;52.766;6.606;2022-08-21T07:20:20;11.30;;;5.13;;
61806;SDS011;47726;52.766;6.606;2022-08-21T07:22:45;14.13;;;5.45;;
61806;SDS011;47726;52.766;6.606;2022-08-21T07:25:11;11.95;;;5.03;;
61806;SDS011;47726;52.766;6.606;2022-08-21T07:27:37;13.48;;;5.00;;
61806;SDS011;47726;52.766;6.606;2022-08-21T07:30:03;12.20;;;4.82;;
61806;SDS011;47726;52.766;6.606;2022-08-21T07:32:30;11.45;;;4.60;;
61806;SDS011;47726;52.766;6.606;2022-08-21T07:34:55;9.70;;;4.47;;
61806;SDS011;47726;52.766;6.606;2022-08-21T07:37:21;10.73;;;4.60;;
61806;SDS011;47726;52.766;6.606;2022-08-21T07:39:46;12.77;;;4.22;;
61806;SDS011;47726;52.766;6.606;2022-08-21T07:42:14;12.38;;;4.30;;
61806;SDS011;47726;52.766;6.606;2022-08-21T07:44:40;12.18;;;3.78;;
61806;SDS011;47726;52.766;6.606;2022-08-21T07:47:06;11.57;;;3.80;;
61806;SDS011;47726;52.766;6.606;2022-08-21T07:49:31;11.20;;;3.13;;
61806;SDS011;47726;52.766;6.606;2022-08-21T07:51:57;9.50;;;3.50;;
61806;SDS011;47726;52.766;6.606;2022-08-21T07:54:23;11.52;;;3.63;;
61806;SDS011;47726;52.766;6.606;2022-08-21T07:56:49;9.90;;;3.47;;
61806;SDS011;47726;52.766;6.606;2022-08-21T07:59:14;9.02;;;3.65;;
61806;SDS011;47726;52.766;6.606;2022-08-21T08:01:40;8.85;;;3.60;;
61806;SDS011;47726;52.766;6.606;2022-08-21T08:04:06;10.57;;;3.55;;
61806;SDS011;47726;52.766;6.606;2022-08-21T08:06:31;10.15;;;3.30;;
61806;SDS011;47726;52.766;6.606;2022-08-21T08:08:57;10.80;;;3.58;;
61806;SDS011;47726;52.766;6.606;2022-08-21T08:11:23;9.77;;;3.50;;
61806;SDS011;47726;52.766;6.606;2022-08-21T08:13:49;12.02;;;3.78;;
61806;SDS011;47726;52.766;6.606;2022-08-21T08:16:16;9.85;;;3.63;;
61806;SDS011;47726;52.766;6.606;2022-08-21T08:18:43;8.43;;;3.30;;
61806;SDS011;47726;52.766;6.606;2022-08-21T08:21:10;10.57;;;3.55;;
61806;SDS011;47726;52.766;6.606;2022-08-21T08:23:37;9.10;;;3.60;;
61806;SDS011;47726;52.766;6.606;2022-08-21T08:26:03;8.18;;;3.30;;
61806;SDS011;47726;52.766;6.606;2022-08-21T08:28:30;10.32;;;3.80;;
61806;SDS011;47726;52.766;6.606;2022-08-21T08:30:56;8.85;;;3.10;;
61806;SDS011;47726;52.766;6.606;2022-08-21T08:33:22;7.65;;;3.05;;
61806;SDS011;47726;52.766;6.606;2022-08-21T08:35:49;8.68;;;3.58;;
61806;SDS011;47726;52.766;6.606;2022-08-21T08:38:15;8.95;;;3.17;;
61806;SDS011;47726;52.766;6.606;2022-08-21T08:43:52;9.65;;;3.70;;
61806;SDS011;47726;52.766;6.606;2022-08-21T08:46:21;10.35;;;3.47;;
61806;SDS011;47726;52.766;6.606;2022-08-21T08:49:15;8.57;;;3.28;;
61806;SDS011;47726;52.766;6.606;2022-08-21T08:51:59;8.90;;;3.42;;
61806;SDS011;47726;52.766;6.606;2022-08-21T08:54:30;8.43;;;3.25;;
61806;SDS011;47726;52.766;6.606;2022-08-21T08:57:08;7.55;;;3.03;;
61806;SDS011;47726;52.766;6.606;2022-08-21T08:59:43;10.50;;;3.67;;
61806;SDS011;47726;52.766;6.606;2022-08-21T09:02:13;8.90;;;3.40;;
61806;SDS011;47726;52.766;6.606;2022-08-21T09:04:40;10.27;;;3.60;;
61806;SDS011;47726;52.766;6.606;2022-08-21T09:07:16;9.95;;;3.30;;
61806;SDS011;47726;52.766;6.606;2022-08-21T09:28:37;8.38;;;2.65;;
61806;SDS011;47726;52.766;6.606;2022-08-21T09:31:05;9.45;;;3.05;;
61806;SDS011;47726;52.766;6.606;2022-08-21T09:33:36;7.25;;;2.53;;
61806;SDS011;47726;52.766;6.606;2022-08-21T09:36:02;8.00;;;2.38;;
61806;SDS011;47726;52.766;6.606;2022-08-21T09:38:32;7.25;;;2.38;;
61806;SDS011;47726;52.766;6.606;2022-08-21T09:43:34;7.32;;;2.63;;
61806;SDS011;47726;52.766;6.606;2022-08-21T09:46:01;9.55;;;2.30;;
61806;SDS011;47726;52.766;6.606;2022-08-21T09:48:37;7.82;;;2.30;;
61806;SDS011;47726;52.766;6.606;2022-08-21T09:51:06;5.30;;;2.05;;
61806;SDS011;47726;52.766;6.606;2022-08-21T09:56:34;6.75;;;1.90;;
61806;SDS011;47726;52.766;6.606;2022-08-21T09:59:30;5.60;;;1.77;;
61806;SDS011;47726;52.766;6.606;2022-08-21T10:01:58;6.45;;;1.95;;
61806;SDS011;47726;52.766;6.606;2022-08-21T10:04:31;8.65;;;1.90;;
61806;SDS011;47726;52.766;6.606;2022-08-21T10:07:32;8.23;;;2.30;;
61806;SDS011;47726;52.766;6.606;2022-08-21T10:29:05;7.78;;;2.13;;
61806;SDS011;47726;52.766;6.606;2022-08-21T10:36:30;4.40;;;1.80;;
61806;SDS011;47726;52.766;6.606;2022-08-21T10:39:21;7.70;;;2.00;;
61806;SDS011;47726;52.766;6.606;2022-08-21T10:56:16;7.78;;;2.20;;
61806;SDS011;47726;52.766;6.606;2022-08-21T10:58:50;8.63;;;2.25;;
61806;SDS011;47726;52.766;6.606;2022-08-21T11:02:03;6.53;;;2.20;;
61806;SDS011;47726;52.766;6.606;2022-08-21T11:07:16;10.10;;;2.47;;
61806;SDS011;47726;52.766;6.606;2022-08-21T11:09:50;8.70;;;2.08;;
61806;SDS011;47726;52.766;6.606;2022-08-21T11:12:35;9.35;;;2.25;;
61806;SDS011;47726;52.766;6.606;2022-08-21T11:15:45;7.78;;;2.35;;
61806;SDS011;47726;52.766;6.606;2022-08-21T11:26:38;6.60;;;2.20;;
61806;SDS011;47726;52.766;6.606;2022-08-21T11:29:29;9.05;;;2.10;;
61806;SDS011;47726;52.766;6.606;2022-08-21T11:37:17;6.80;;;2.20;;
61806;SDS011;47726;52.766;6.606;2022-08-21T11:40:08;7.60;;;2.03;;
61806;SDS011;47726;52.766;6.606;2022-08-21T11:45:32;7.13;;;1.95;;
61806;SDS011;47726;52.766;6.606;2022-08-21T11:48:27;7.03;;;2.20;;
61806;SDS011;47726;52.766;6.606;2022-08-21T11:50:53;9.07;;;1.90;;
61806;SDS011;47726;52.766;6.606;2022-08-21T11:56:07;7.60;;;2.20;;
61806;SDS011;47726;52.766;6.606;2022-08-21T11:58:40;7.43;;;2.17;;
61806;SDS011;47726;52.766;6.606;2022-08-21T12:01:11;7.40;;;2.00;;
61806;SDS011;47726;52.766;6.606;2022-08-21T12:03:42;7.20;;;2.33;;
61806;SDS011;47726;52.766;6.606;2022-08-21T12:06:37;7.95;;;2.15;;
61806;SDS011;47726;52.766;6.606;2022-08-21T12:09:06;7.78;;;2.25;;
61806;SDS011;47726;52.766;6.606;2022-08-21T12:12:05;6.35;;;2.08;;
61806;SDS011;47726;52.766;6.606;2022-08-21T12:14:35;9.10;;;2.47;;
61806;SDS011;47726;52.766;6.606;2022-08-21T12:17:22;7.03;;;1.90;;
61806;SDS011;47726;52.766;6.606;2022-08-21T12:19:59;4.75;;;1.90;;
61806;SDS011;47726;52.766;6.606;2022-08-21T12:22:39;5.78;;;1.90;;
61806;SDS011;47726;52.766;6.606;2022-08-21T12:25:07;6.88;;;2.05;;
61806;SDS011;47726;52.766;6.606;2022-08-21T12:27:47;6.88;;;2.03;;
61806;SDS011;47726;52.766;6.606;2022-08-21T12:33:04;7.57;;;1.77;;
61806;SDS011;47726;52.766;6.606;2022-08-21T12:35:43;8.10;;;2.20;;
61806;SDS011;47726;52.766;6.606;2022-08-21T12:38:14;6.72;;;2.22;;
61806;SDS011;47726;52.766;6.606;2022-08-21T12:43:39;7.90;;;2.05;;
61806;SDS011;47726;52.766;6.606;2022-08-21T12:46:14;5.00;;;1.95;;
61806;SDS011;47726;52.766;6.606;2022-08-21T12:49:00;7.38;;;2.20;;
61806;SDS011;47726;52.766;6.606;2022-08-21T12:51:36;8.40;;;2.30;;
61806;SDS011;47726;52.766;6.606;2022-08-21T12:54:21;7.05;;;2.25;;
61806;SDS011;47726;52.766;6.606;2022-08-21T12:59:23;6.90;;;2.10;;
61806;SDS011;47726;52.766;6.606;2022-08-21T13:01:49;7.97;;;2.33;;
61806;SDS011;47726;52.766;6.606;2022-08-21T13:04:18;6.88;;;2.33;;
61806;SDS011;47726;52.766;6.606;2022-08-21T13:06:47;8.20;;;2.40;;
61806;SDS011;47726;52.766;6.606;2022-08-21T13:11:45;9.23;;;2.10;;
61806;SDS011;47726;52.766;6.606;2022-08-21T13:14:24;6.50;;;2.08;;
61806;SDS011;47726;52.766;6.606;2022-08-21T13:17:05;7.05;;;2.00;;
61806;SDS011;47726;52.766;6.606;2022-08-21T13:19:32;6.70;;;2.08;;
61806;SDS011;47726;52.766;6.606;2022-08-21T13:21:59;7.13;;;2.20;;
61806;SDS011;47726;52.766;6.606;2022-08-21T13:24:26;7.55;;;2.22;;
61806;SDS011;47726;52.766;6.606;2022-08-21T13:26:54;6.45;;;2.05;;
61806;SDS011;47726;52.766;6.606;2022-08-21T13:29:22;8.20;;;2.13;;
61806;SDS011;47726;52.766;6.606;2022-08-21T13:31:57;9.82;;;2.38;;
61806;SDS011;47726;52.766;6.606;2022-08-21T13:34:28;7.78;;;1.95;;
61806;SDS011;47726;52.766;6.606;2022-08-21T13:36:57;7.30;;;2.10;;
61806;SDS011;47726;52.766;6.606;2022-08-21T13:39:25;6.97;;;2.08;;
61806;SDS011;47726;52.766;6.606;2022-08-21T13:41:53;4.55;;;1.92;;
61806;SDS011;47726;52.766;6.606;2022-08-21T13:44:33;7.20;;;2.13;;
61806;SDS011;47726;52.766;6.606;2022-08-21T13:47:07;6.60;;;2.13;;
61806;SDS011;47726;52.766;6.606;2022-08-21T13:49:39;7.28;;;2.15;;
61806;SDS011;47726;52.766;6.606;2022-08-21T13:52:16;9.73;;;2.30;;
61806;SDS011;47726;52.766;6.606;2022-08-21T13:54:51;9.60;;;2.42;;
61806;SDS011;47726;52.766;6.606;2022-08-21T13:57:24;7.85;;;2.40;;
61806;SDS011;47726;52.766;6.606;2022-08-21T13:59:52;7.75;;;2.17;;
61806;SDS011;47726;52.766;6.606;2022-08-21T14:02:19;7.57;;;2.30;;
61806;SDS011;47726;52.766;6.606;2022-08-21T14:04:56;8.25;;;2.40;;
61806;SDS011;47726;52.766;6.606;2022-08-21T14:07:33;8.50;;;2.50;;
61806;SDS011;47726;52.766;6.606;2022-08-21T14:10:04;8.73;;;2.50;;
61806;SDS011;47726;52.766;6.606;2022-08-21T14:12:34;6.03;;;2.17;;
61806;SDS011;47726;52.766;6.606;2022-08-21T14:15:16;6.72;;;2.40;;
61806;SDS011;47726;52.766;6.606;2022-08-21T14:17:44;6.90;;;2.10;;
61806;SDS011;47726;52.766;6.606;2022-08-21T14:20:12;5.75;;;2.10;;
61806;SDS011;47726;52.766;6.606;2022-08-21T14:22:50;9.10;;;2.50;;
61806;SDS011;47726;52.766;6.606;2022-08-21T14:27:58;7.10;;;2.20;;
61806;SDS011;47726;52.766;6.606;2022-08-21T14:30:43;6.50;;;2.40;;
61806;SDS011;47726;52.766;6.606;2022-08-21T14:33:12;7.50;;;2.42;;
61806;SDS011;47726;52.766;6.606;2022-08-21T14:35:43;8.18;;;2.30;;
61806;SDS011;47726;52.766;6.606;2022-08-21T14:38:13;7.85;;;2.33;;
61806;SDS011;47726;52.766;6.606;2022-08-21T14:40:44;8.27;;;2.38;;
61806;SDS011;47726;52.766;6.606;2022-08-21T14:43:13;7.32;;;2.38;;
61806;SDS011;47726;52.766;6.606;2022-08-21T14:45:39;6.93;;;2.40;;
61806;SDS011;47726;52.766;6.606;2022-08-21T14:48:05;6.85;;;2.00;;
61806;SDS011;47726;52.766;6.606;2022-08-21T14:50:32;8.65;;;2.30;;
61806;SDS011;47726;52.766;6.606;2022-08-21T14:52:57;6.68;;;2.38;;
61806;SDS011;47726;52.766;6.606;2022-08-21T14:55:23;9.15;;;2.65;;
61806;SDS011;47726;52.766;6.606;2022-08-21T14:57:49;6.63;;;2.00;;
61806;SDS011;47726;52.766;6.606;2022-08-21T15:00:18;7.57;;;2.50;;
61806;SDS011;47726;52.766;6.606;2022-08-21T15:02:48;8.77;;;2.65;;
61806;SDS011;47726;52.766;6.606;2022-08-21T15:05:14;8.18;;;2.45;;
61806;SDS011;47726;52.766;6.606;2022-08-21T15:07:41;5.97;;;2.22;;
61806;SDS011;47726;52.766;6.606;2022-08-21T15:10:07;6.15;;;2.22;;
61806;SDS011;47726;52.766;6.606;2022-08-21T15:12:33;6.97;;;2.30;;
61806;SDS011;47726;52.766;6.606;2022-08-21T15:14:59;6.93;;;2.40;;
61806;SDS011;47726;52.766;6.606;2022-08-21T15:17:25;6.75;;;2.58;;
61806;SDS011;47726;52.766;6.606;2022-08-21T15:19:51;9.82;;;2.72;;
61806;SDS011;47726;52.766;6.606;2022-08-21T15:22:17;8.68;;;2.60;;
61806;SDS011;47726;52.766;6.606;2022-08-21T15:24:42;6.28;;;2.38;;
61806;SDS011;47726;52.766;6.606;2022-08-21T15:27:08;8.07;;;2.40;;
61806;SDS011;47726;52.766;6.606;2022-08-21T15:29:35;7.55;;;2.50;;
61806;SDS011;47726;52.766;6.606;2022-08-21T15:32:23;6.07;;;2.10;;
61806;SDS011;47726;52.766;6.606;2022-08-21T15:34:53;8.30;;;2.35;;
61806;SDS011;47726;52.766;6.606;2022-08-21T15:37:20;9.80;;;2.40;;
61806;SDS011;47726;52.766;6.606;2022-08-21T15:39:46;8.48;;;2.50;;
61806;SDS011;47726;52.766;6.606;2022-08-21T15:42:11;10.68;;;2.38;;
61806;SDS011;47726;52.766;6.606;2022-08-21T15:44:41;7.63;;;2.30;;
61806;SDS011;47726;52.766;6.606;2022-08-21T15:47:12;7.30;;;2.28;;
61806;SDS011;47726;52.766;6.606;2022-08-21T15:49:41;6.45;;;2.10;;
61806;SDS011;47726;52.766;6.606;2022-08-21T15:52:10;8.98;;;2.15;;
61806;SDS011;47726;52.766;6.606;2022-08-21T15:54:39;7.78;;;2.30;;
61806;SDS011;47726;52.766;6.606;2022-08-21T15:57:05;7.65;;;2.40;;
61806;SDS011;47726;52.766;6.606;2022-08-21T15:59:32;6.45;;;2.45;;
61806;SDS011;47726;52.766;6.606;2022-08-21T16:02:07;9.05;;;2.40;;
61806;SDS011;47726;52.766;6.606;2022-08-21T16:04:39;8.15;;;2.40;;
61806;SDS011;47726;52.766;6.606;2022-08-21T16:07:05;7.18;;;2.33;;
61806;SDS011;47726;52.766;6.606;2022-08-21T16:09:31;7.22;;;2.30;;
61806;SDS011;47726;52.766;6.606;2022-08-21T16:11:58;5.80;;;1.98;;
61806;SDS011;47726;52.766;6.606;2022-08-21T16:14:25;6.55;;;2.17;;
61806;SDS011;47726;52.766;6.606;2022-08-21T16:16:53;7.22;;;2.35;;
61806;SDS011;47726;52.766;6.606;2022-08-21T16:19:19;6.15;;;2.38;;
61806;SDS011;47726;52.766;6.606;2022-08-21T16:21:45;5.22;;;2.10;;
61806;SDS011;47726;52.766;6.606;2022-08-21T16:24:11;8.23;;;2.42;;
61806;SDS011;47726;52.766;6.606;2022-08-21T16:26:37;9.55;;;2.10;;
61806;SDS011;47726;52.766;6.606;2022-08-21T16:29:03;6.32;;;1.92;;
61806;SDS011;47726;52.766;6.606;2022-08-21T16:31:30;7.60;;;2.00;;
61806;SDS011;47726;52.766;6.606;2022-08-21T16:33:57;7.55;;;2.30;;
61806;SDS011;47726;52.766;6.606;2022-08-21T16:36:24;8.05;;;2.00;;
61806;SDS011;47726;52.766;6.606;2022-08-21T16:38:50;6.97;;;2.10;;
61806;SDS011;47726;52.766;6.606;2022-08-21T16:41:19;5.00;;;1.80;;